createdAt,value
2019-05-22T00:01:22.585Z,7.00
2019-05-22T00:04:10.340Z,6.43
2019-05-22T00:06:42.096Z,5.90
2019-05-22T00:09:19.010Z,6.73
2019-05-22T00:11:49.663Z,6.33
2019-05-22T00:14:19.325Z,6.37
2019-05-22T00:16:49.347Z,6.90
2019-05-22T00:19:19.626Z,7.10
2019-05-22T00:21:51.627Z,6.10
2019-05-22T00:24:19.665Z,6.17
2019-05-22T00:26:49.309Z,6.10
2019-05-22T00:29:18.324Z,6.00
2019-05-22T00:31:47.660Z,6.10
2019-05-22T00:34:16.821Z,6.60
2019-05-22T00:36:46.375Z,5.70
2019-05-22T00:39:16.193Z,5.90
2019-05-22T00:41:50.137Z,5.93
2019-05-22T00:44:18.716Z,5.90
2019-05-22T00:46:47.512Z,5.90
2019-05-22T00:49:17.720Z,5.57
2019-05-22T00:52:01.918Z,6.47
2019-05-22T00:54:46.790Z,5.60
2019-05-22T00:57:24.829Z,6.17
2019-05-22T00:59:55.776Z,5.70
2019-05-22T01:02:27.881Z,6.23
2019-05-22T01:04:57.640Z,5.60
2019-05-22T01:07:30.070Z,5.57
2019-05-22T01:09:58.957Z,5.63
2019-05-22T01:12:31.572Z,6.60
2019-05-22T01:15:03.011Z,5.67
2019-05-22T01:17:35.987Z,6.10
2019-05-22T01:20:09.962Z,5.63
2019-05-22T01:22:39.071Z,6.90
2019-05-22T01:25:09.917Z,7.20
2019-05-22T01:27:38.461Z,6.30
2019-05-22T01:30:10.023Z,6.60
2019-05-22T01:32:48.940Z,6.13
2019-05-22T01:35:19.375Z,6.17
2019-05-22T01:37:47.501Z,6.60
2019-05-22T01:40:28.829Z,5.80
2019-05-22T01:42:59.668Z,6.30
2019-05-22T01:45:27.832Z,6.43
2019-05-22T01:48:02.515Z,5.60
2019-05-22T01:50:47.813Z,6.57
2019-05-22T01:53:20.844Z,6.53
2019-05-22T01:55:51.723Z,5.87
2019-05-22T01:58:21.317Z,5.80
2019-05-22T02:00:52.206Z,6.73
2019-05-22T02:03:23.421Z,6.30
2019-05-22T02:05:51.962Z,6.03
2019-05-22T02:08:21.817Z,6.33
2019-05-22T02:10:52.009Z,6.13
2019-05-22T02:13:28.070Z,5.73
2019-05-22T02:15:56.265Z,5.93
2019-05-22T02:18:24.909Z,6.13
2019-05-22T02:20:53.626Z,6.03
2019-05-22T02:23:21.508Z,5.73
2019-05-22T02:25:50.621Z,5.87
2019-05-22T02:28:20.623Z,6.20
2019-05-22T02:30:48.984Z,6.60
2019-05-22T02:33:18.249Z,6.80
2019-05-22T02:35:46.918Z,6.60
2019-05-22T02:38:16.361Z,7.00
2019-05-22T02:40:46.478Z,6.70
2019-05-22T02:43:15.782Z,6.63
2019-05-22T02:45:44.818Z,6.80
2019-05-22T02:48:13.413Z,6.77
2019-05-22T02:50:42.017Z,6.13
2019-05-22T02:53:12.647Z,6.20
2019-05-22T02:55:41.297Z,5.90
2019-05-22T02:58:10.605Z,6.07
2019-05-22T03:00:59.880Z,5.47
2019-05-22T03:03:28.463Z,6.10
2019-05-22T03:05:58.296Z,5.90
2019-05-22T03:08:34.958Z,5.80
2019-05-22T03:11:04.001Z,6.23
2019-05-22T03:13:59.264Z,5.90
2019-05-22T03:16:35.497Z,5.67
2019-05-22T03:19:09.092Z,6.40
2019-05-22T03:21:36.013Z,5.80
2019-05-22T03:24:04.572Z,5.63
2019-05-22T03:26:46.269Z,5.87
2019-05-22T03:29:14.952Z,6.10
2019-05-22T03:31:43.654Z,6.10
2019-05-22T03:34:12.947Z,6.30
2019-05-22T03:36:41.434Z,6.43
2019-05-22T03:39:10.663Z,5.70
2019-05-22T03:41:40.728Z,5.93
2019-05-22T03:44:10.557Z,6.23
2019-05-22T03:46:43.921Z,6.40
2019-05-22T03:49:29.173Z,6.13
2019-05-22T03:51:47.915Z,6.37
2019-05-22T03:54:15.873Z,6.37
2019-05-22T03:56:44.148Z,6.20
2019-05-22T03:59:13.075Z,5.70
2019-05-22T04:01:42.851Z,6.20
2019-05-22T04:04:12.462Z,6.10
2019-05-22T04:06:40.889Z,5.80
2019-05-22T04:09:19.823Z,5.47
2019-05-22T04:11:48.199Z,6.00
2019-05-22T04:14:19.392Z,5.57
2019-05-22T04:16:48.521Z,6.50
2019-05-22T04:19:16.529Z,6.10
2019-05-22T04:21:45.450Z,5.70
2019-05-22T04:24:13.905Z,5.80
2019-05-22T04:26:42.476Z,5.10
2019-05-22T04:29:11.255Z,5.60
2019-05-22T04:31:46.745Z,5.53
2019-05-22T04:34:14.842Z,5.53
2019-05-22T04:36:43.159Z,5.30
2019-05-22T04:39:19.960Z,5.83
2019-05-22T04:41:49.356Z,5.60
2019-05-22T04:44:17.341Z,6.10
2019-05-22T04:46:45.349Z,6.13
2019-05-22T04:49:13.797Z,6.50
2019-05-22T04:51:41.852Z,6.30
2019-05-22T04:54:10.327Z,6.93
2019-05-22T04:56:38.353Z,7.03
2019-05-22T04:59:06.267Z,6.50
2019-05-22T05:01:34.515Z,7.10
2019-05-22T05:04:03.420Z,7.20
2019-05-22T05:06:33.258Z,7.43
2019-05-22T05:09:01.250Z,6.83
2019-05-22T05:11:29.482Z,6.90
2019-05-22T05:13:57.974Z,7.17
2019-05-22T05:16:25.865Z,7.57
2019-05-22T05:18:53.962Z,7.60
2019-05-22T05:21:23.272Z,7.30
2019-05-22T05:23:51.713Z,7.10
2019-05-22T05:26:20.122Z,7.30
2019-05-22T05:28:48.546Z,7.10
2019-05-22T05:31:16.980Z,6.93
2019-05-22T05:34:09.761Z,6.90
2019-05-22T05:36:39.485Z,7.27
2019-05-22T05:39:14.313Z,7.00
2019-05-22T05:41:42.335Z,6.90
2019-05-22T05:44:10.591Z,6.90
2019-05-22T05:46:38.776Z,6.87
2019-05-22T05:49:08.244Z,7.40
2019-05-22T05:51:39.976Z,7.37
2019-05-22T05:54:15.321Z,6.97
2019-05-22T05:56:50.820Z,6.80
2019-05-22T05:59:19.933Z,6.27
2019-05-22T06:01:57.918Z,6.57
2019-05-22T06:04:37.973Z,7.03
2019-05-22T06:07:19.517Z,6.50
2019-05-22T06:10:08.501Z,6.53
2019-05-22T06:12:36.755Z,6.77
2019-05-22T06:15:05.814Z,6.97
2019-05-22T06:18:10.438Z,7.47
2019-05-22T06:20:40.861Z,7.43
2019-05-22T06:23:51.885Z,7.47
2019-05-22T06:26:49.478Z,8.53
2019-05-22T06:29:19.504Z,7.87
2019-05-22T06:32:34.161Z,8.00
2019-05-22T06:35:03.081Z,10.57
2019-05-22T06:37:38.482Z,12.20
2019-05-22T06:40:08.897Z,12.83
2019-05-22T06:42:40.979Z,12.43
2019-05-22T06:45:10.261Z,13.40
2019-05-22T06:47:38.097Z,12.03
2019-05-22T06:50:06.627Z,10.57
2019-05-22T06:52:34.657Z,10.63
2019-05-22T06:55:03.222Z,12.07
2019-05-22T06:57:33.945Z,11.03
2019-05-22T07:00:14.747Z,9.50
2019-05-22T07:02:41.417Z,9.20
2019-05-22T07:05:10.494Z,9.30
2019-05-22T07:07:38.449Z,9.10
2019-05-22T07:10:09.326Z,8.77
2019-05-22T07:12:37.488Z,8.50
2019-05-22T07:15:43.441Z,9.27
2019-05-22T07:18:13.460Z,8.57
2019-05-22T07:20:44.224Z,8.70
2019-05-22T07:23:13.331Z,8.57
2019-05-22T07:25:43.986Z,7.90
2019-05-22T07:28:12.915Z,7.67
2019-05-22T07:30:40.924Z,7.87
2019-05-22T07:33:09.342Z,7.33
2019-05-22T07:35:56.176Z,8.27
2019-05-22T07:38:07.516Z,8.20
2019-05-22T07:40:37.107Z,7.53
2019-05-22T07:43:05.884Z,7.50
2019-05-22T07:45:36.001Z,7.40
2019-05-22T07:48:05.162Z,7.53
2019-05-22T07:50:36.018Z,7.40
2019-05-22T07:53:04.691Z,7.13
2019-05-22T07:55:33.671Z,7.80
2019-05-22T07:58:08.311Z,7.33
2019-05-22T08:00:36.642Z,7.37
2019-05-22T08:03:05.343Z,7.57
2019-05-22T08:05:35.568Z,7.30
2019-05-22T08:08:03.841Z,7.50
2019-05-22T08:10:31.949Z,7.60
2019-05-22T08:13:00.678Z,7.07
2019-05-22T08:15:29.332Z,7.03
2019-05-22T08:17:57.281Z,7.63
2019-05-22T08:20:26.024Z,6.53
2019-05-22T08:22:56.361Z,6.77
2019-05-22T08:25:24.689Z,6.93
2019-05-22T08:27:54.135Z,6.60
2019-05-22T08:30:22.553Z,6.73
2019-05-22T08:32:51.558Z,7.10
2019-05-22T08:35:19.820Z,6.30
2019-05-22T08:37:49.398Z,6.40
2019-05-22T08:40:18.424Z,6.33
2019-05-22T08:42:47.687Z,6.70
2019-05-22T08:45:16.784Z,7.03
2019-05-22T08:47:45.608Z,6.80
2019-05-22T08:50:15.574Z,6.60
2019-05-22T08:52:44.410Z,6.40
2019-05-22T08:55:13.571Z,6.50
2019-05-22T08:57:42.669Z,7.10
2019-05-22T09:00:13.923Z,6.43
2019-05-22T09:02:42.323Z,6.20
2019-05-22T09:05:10.592Z,6.80
2019-05-22T09:07:39.271Z,7.03
2019-05-22T09:10:09.386Z,6.60
2019-05-22T09:12:37.886Z,6.40
2019-05-22T09:15:36.799Z,6.77
2019-05-22T09:18:04.587Z,6.47
2019-05-22T09:20:48.216Z,6.30
2019-05-22T09:23:04.030Z,6.53
2019-05-22T09:25:32.493Z,6.53
2019-05-22T09:28:00.552Z,6.80
2019-05-22T09:30:28.945Z,6.60
2019-05-22T09:32:57.589Z,7.17
2019-05-22T09:35:26.155Z,6.60
2019-05-22T09:37:54.168Z,7.30
2019-05-22T09:40:22.281Z,7.57
2019-05-22T09:42:50.527Z,7.10
2019-05-22T09:45:19.428Z,7.00
2019-05-22T09:47:47.601Z,6.13
2019-05-22T09:50:16.782Z,7.70
2019-05-22T09:52:56.969Z,6.93
2019-05-22T09:55:16.896Z,6.87
2019-05-22T09:57:45.265Z,6.60
2019-05-22T10:00:15.456Z,7.20
2019-05-22T10:02:43.756Z,6.83
2019-05-22T10:05:13.899Z,6.53
2019-05-22T10:07:57.797Z,6.57
2019-05-22T10:10:12.700Z,7.27
2019-05-22T10:12:40.947Z,6.60
2019-05-22T10:15:32.527Z,6.30
2019-05-22T10:18:00.858Z,6.37
2019-05-22T10:20:29.145Z,6.30
2019-05-22T10:23:12.562Z,6.70
2019-05-22T10:25:27.673Z,6.43
2019-05-22T10:27:59.008Z,6.10
2019-05-22T10:30:26.784Z,6.20
2019-05-22T10:32:54.859Z,7.63
2019-05-22T10:35:24.818Z,7.40
2019-05-22T10:37:54.525Z,6.60
2019-05-22T10:40:23.750Z,6.27
2019-05-22T10:42:51.873Z,6.50
2019-05-22T10:45:20.527Z,6.80
2019-05-22T10:47:48.920Z,6.83
2019-05-22T10:50:17.579Z,6.87
2019-05-22T10:52:45.976Z,5.83
2019-05-22T10:55:16.368Z,6.50
2019-05-22T10:57:44.940Z,7.27
2019-05-22T11:00:15.575Z,6.63
2019-05-22T11:02:44.230Z,6.67
2019-05-22T11:05:12.565Z,7.00
2019-05-22T11:07:41.102Z,6.47
2019-05-22T11:10:10.497Z,6.20
2019-05-22T11:12:39.264Z,6.57
2019-05-22T11:15:38.632Z,7.60
2019-05-22T11:18:06.640Z,7.00
2019-05-22T11:20:35.673Z,6.60
2019-05-22T11:23:04.955Z,6.63
2019-05-22T11:25:33.273Z,6.50
2019-05-22T11:28:01.481Z,6.37
2019-05-22T11:30:31.413Z,5.93
2019-05-22T11:33:00.427Z,6.00
2019-05-22T11:35:28.788Z,6.40
2019-05-22T11:37:56.835Z,6.50
2019-05-22T11:40:25.481Z,6.13
2019-05-22T11:42:53.707Z,6.27
2019-05-22T11:45:22.289Z,6.13
2019-05-22T11:47:51.007Z,6.47
2019-05-22T11:50:19.221Z,5.80
2019-05-22T11:52:47.254Z,6.20
2019-05-22T11:55:15.594Z,5.90
2019-05-22T11:57:44.789Z,5.57
2019-05-22T12:00:14.373Z,5.37
2019-05-22T12:02:43.415Z,5.60
2019-05-22T12:05:12.713Z,5.70
2019-05-22T12:07:41.851Z,6.23
2019-05-22T12:10:10.421Z,5.47
2019-05-22T12:12:38.373Z,6.17
2019-05-22T12:15:40.134Z,5.60
2019-05-22T12:18:08.244Z,5.67
2019-05-22T12:20:36.460Z,5.63
2019-05-22T12:23:05.266Z,4.97
2019-05-22T12:25:33.410Z,5.20
2019-05-22T12:28:01.372Z,5.63
2019-05-22T12:30:31.042Z,5.27
2019-05-22T12:32:59.860Z,5.93
2019-05-22T12:35:28.819Z,5.53
2019-05-22T12:37:58.969Z,5.70
2019-05-22T12:40:31.646Z,5.77
2019-05-22T12:43:00.474Z,5.50
2019-05-22T12:45:29.450Z,5.83
2019-05-22T12:47:58.631Z,5.20
2019-05-22T12:50:29.504Z,5.70
2019-05-22T12:52:58.453Z,5.60
2019-05-22T12:55:26.784Z,5.63
2019-05-22T12:57:55.159Z,5.37
2019-05-22T13:00:24.539Z,5.30
2019-05-22T13:02:53.383Z,5.23
2019-05-22T13:05:22.567Z,5.20
2019-05-22T13:07:51.100Z,5.07
2019-05-22T13:10:20.988Z,4.87
2019-05-22T13:12:49.194Z,5.10
2019-05-22T13:16:07.290Z,4.47
2019-05-22T13:18:35.241Z,4.80
2019-05-22T13:21:05.493Z,4.67
2019-05-22T13:23:38.988Z,5.23
2019-05-22T13:26:07.932Z,4.80
2019-05-22T13:28:38.143Z,5.00
2019-05-22T13:31:06.780Z,4.70
2019-05-22T13:33:37.902Z,5.10
2019-05-22T13:36:07.238Z,4.47
2019-05-22T13:38:35.594Z,4.50
2019-05-22T13:41:04.061Z,4.20
2019-05-22T13:43:32.870Z,4.30
2019-05-22T13:46:00.891Z,4.90
2019-05-22T13:48:29.023Z,4.73
2019-05-22T13:50:58.937Z,4.80
2019-05-22T13:53:28.573Z,4.87
2019-05-22T13:55:57.199Z,4.60
2019-05-22T13:58:25.876Z,4.23
2019-05-22T14:00:54.152Z,3.90
2019-05-22T14:03:23.592Z,4.27
2019-05-22T14:05:53.747Z,4.40
2019-05-22T14:08:22.427Z,3.83
2019-05-22T14:10:51.141Z,4.57
2019-05-22T14:13:39.910Z,4.33
2019-05-22T14:16:08.358Z,4.00
2019-05-22T14:18:36.720Z,4.10
2019-05-22T14:21:04.972Z,3.90
2019-05-22T14:23:33.512Z,4.40
2019-05-22T14:26:01.447Z,4.07
2019-05-22T14:28:29.975Z,4.73
2019-05-22T14:30:57.972Z,4.10
2019-05-22T14:33:28.214Z,3.70
2019-05-22T14:35:56.619Z,3.53
2019-05-22T14:38:25.981Z,3.87
2019-05-22T14:40:54.055Z,4.00
2019-05-22T14:43:22.142Z,4.20
2019-05-22T14:45:50.200Z,3.63
2019-05-22T14:48:18.633Z,4.23
2019-05-22T14:50:46.641Z,4.07
2019-05-22T14:53:15.944Z,4.20
2019-05-22T14:55:44.044Z,4.90
2019-05-22T14:58:13.837Z,4.97
2019-05-22T15:00:42.711Z,4.60
2019-05-22T15:03:11.024Z,4.70
2019-05-22T15:05:39.114Z,5.13
2019-05-22T15:08:07.438Z,4.87
2019-05-22T15:10:36.812Z,4.07
2019-05-22T15:13:05.274Z,3.97
2019-05-22T15:15:34.662Z,4.33
2019-05-22T15:18:02.653Z,4.07
2019-05-22T15:20:37.171Z,4.47
2019-05-22T15:23:06.198Z,4.20
2019-05-22T15:25:34.573Z,4.17
2019-05-22T15:28:02.758Z,3.93
2019-05-22T15:30:30.888Z,3.90
2019-05-22T15:32:58.849Z,4.43
2019-05-22T15:35:27.159Z,4.40
2019-05-22T15:37:55.305Z,4.30
2019-05-22T15:40:24.827Z,4.20
2019-05-22T15:42:53.273Z,4.50
2019-05-22T15:45:24.753Z,4.67
2019-05-22T15:47:56.717Z,4.50
2019-05-22T15:50:27.277Z,4.90
2019-05-22T15:52:59.796Z,4.70
2019-05-22T15:55:30.765Z,4.33
2019-05-22T15:57:59.488Z,4.40
2019-05-22T16:00:31.945Z,4.60
2019-05-22T16:03:07.442Z,5.13
2019-05-22T16:05:36.031Z,5.83
2019-05-22T16:08:06.551Z,5.53
2019-05-22T16:10:36.593Z,6.07
2019-05-22T16:13:05.453Z,6.20
2019-05-22T16:16:15.547Z,6.70
2019-05-22T16:18:45.203Z,5.77
2019-05-22T16:21:13.507Z,5.97
2019-05-22T16:23:42.389Z,5.13
2019-05-22T16:26:12.045Z,4.87
2019-05-22T16:28:41.345Z,4.60
2019-05-22T16:31:09.978Z,4.47
2019-05-22T16:33:40.434Z,4.53
2019-05-22T16:36:09.291Z,4.00
2019-05-22T16:38:38.712Z,4.60
2019-05-22T16:41:07.484Z,4.80
2019-05-22T16:43:49.039Z,4.63
2019-05-22T16:46:08.818Z,4.40
2019-05-22T16:48:37.504Z,4.20
2019-05-22T16:51:06.925Z,4.37
2019-05-22T16:53:35.833Z,4.33
2019-05-22T16:56:04.911Z,4.10
2019-05-22T16:58:33.538Z,4.23
2019-05-22T17:01:01.972Z,4.00
2019-05-22T17:03:30.699Z,4.40
2019-05-22T17:05:58.669Z,4.63
2019-05-22T17:08:28.516Z,7.17
2019-05-22T17:10:58.164Z,8.20
2019-05-22T17:13:29.049Z,9.33
2019-05-22T17:16:44.311Z,9.43
2019-05-22T17:19:25.738Z,8.53
2019-05-22T17:21:42.551Z,6.70
2019-05-22T17:24:12.189Z,6.43
2019-05-22T17:26:40.520Z,5.93
2019-05-22T17:29:09.737Z,6.00
2019-05-22T17:31:37.765Z,7.50
2019-05-22T17:34:09.320Z,8.37
2019-05-22T17:36:38.008Z,6.30
2019-05-22T17:39:09.195Z,5.87
2019-05-22T17:41:39.194Z,7.23
2019-05-22T17:44:08.939Z,8.10
2019-05-22T17:46:38.818Z,7.53
2019-05-22T17:49:06.932Z,7.03
2019-05-22T17:51:35.212Z,6.17
2019-05-22T17:54:04.176Z,5.33
2019-05-22T17:56:32.184Z,7.13
2019-05-22T17:59:00.315Z,6.97
2019-05-22T18:01:28.686Z,6.30
2019-05-22T18:03:56.855Z,7.37
2019-05-22T18:06:25.782Z,13.87
2019-05-22T18:08:53.965Z,16.53
2019-05-22T18:11:25.935Z,13.03
2019-05-22T18:13:58.949Z,10.20
2019-05-22T18:16:49.075Z,15.60
2019-05-22T18:19:17.815Z,13.70
2019-05-22T18:21:45.939Z,10.63
2019-05-22T18:24:14.397Z,23.57
2019-05-22T18:26:42.736Z,11.23
2019-05-22T18:29:10.821Z,6.67
2019-05-22T18:31:39.560Z,6.83
2019-05-22T18:34:07.714Z,6.87
2019-05-22T18:36:35.889Z,8.80
2019-05-22T18:39:06.146Z,9.37
2019-05-22T18:41:34.167Z,8.30
2019-05-22T18:44:03.502Z,7.70
2019-05-22T18:46:32.401Z,6.53
2019-05-22T18:49:00.428Z,6.63
2019-05-22T18:51:28.934Z,6.23
2019-05-22T18:53:57.389Z,9.30
2019-05-22T18:56:26.125Z,11.33
2019-05-22T18:58:54.607Z,11.67
2019-05-22T19:01:23.306Z,8.90
2019-05-22T19:03:51.579Z,7.73
2019-05-22T19:06:29.652Z,8.17
2019-05-22T19:08:49.928Z,8.30
2019-05-22T19:11:25.246Z,8.00
2019-05-22T19:13:53.762Z,7.40
2019-05-22T19:17:10.264Z,6.40
2019-05-22T19:19:36.411Z,5.70
2019-05-22T19:22:04.405Z,5.73
2019-05-22T19:24:32.587Z,5.60
2019-05-22T19:27:00.642Z,6.00
2019-05-22T19:29:28.941Z,6.53
2019-05-22T19:32:08.628Z,6.33
2019-05-22T19:34:37.108Z,6.03
2019-05-22T19:37:05.422Z,6.57
2019-05-22T19:39:34.280Z,6.50
2019-05-22T19:42:05.335Z,5.40
2019-05-22T19:44:32.885Z,5.87
2019-05-22T19:47:01.139Z,6.80
2019-05-22T19:49:29.515Z,7.70
2019-05-22T19:51:57.995Z,9.83
2019-05-22T19:54:26.345Z,10.33
2019-05-22T19:56:54.309Z,9.90
2019-05-22T19:59:23.110Z,8.63
2019-05-22T20:01:52.038Z,9.13
2019-05-22T20:04:20.293Z,8.03
2019-05-22T20:06:48.363Z,7.13
2019-05-22T20:09:18.600Z,7.50
2019-05-22T20:11:46.583Z,6.73
2019-05-22T20:14:34.626Z,6.03
2019-05-22T20:17:54.121Z,6.00
2019-05-22T20:20:23.830Z,6.20
2019-05-22T20:22:52.463Z,6.30
2019-05-22T20:25:36.743Z,6.93
2019-05-22T20:28:49.793Z,7.93
2019-05-22T20:31:18.374Z,7.07
2019-05-22T20:33:46.484Z,6.40
2019-05-22T20:36:14.726Z,5.80
2019-05-22T20:38:43.436Z,6.10
2019-05-22T20:41:12.397Z,6.43
2019-05-22T20:43:41.613Z,6.50
2019-05-22T20:46:10.707Z,5.97
2019-05-22T20:48:40.206Z,6.30
2019-05-22T20:51:11.113Z,5.57
2019-05-22T20:53:53.628Z,6.53
2019-05-22T20:56:12.484Z,6.23
2019-05-22T20:58:42.648Z,6.20
2019-05-22T21:01:12.212Z,6.33
2019-05-22T21:03:40.251Z,6.63
2019-05-22T21:06:12.669Z,6.27
2019-05-22T21:08:43.683Z,6.17
2019-05-22T21:11:20.179Z,6.03
2019-05-22T21:13:48.413Z,6.10
2019-05-22T21:16:50.351Z,5.77
2019-05-22T21:19:16.989Z,5.97
2019-05-22T21:21:45.843Z,5.90
2019-05-22T21:24:14.580Z,6.30
2019-05-22T21:26:43.477Z,5.70
2019-05-22T21:29:11.778Z,5.40
2019-05-22T21:31:42.300Z,6.03
2019-05-22T21:34:11.040Z,5.53
2019-05-22T21:36:38.999Z,8.07
2019-05-22T21:39:11.367Z,10.43
2019-05-22T21:41:41.965Z,8.50
2019-05-22T21:44:10.141Z,7.93
2019-05-22T21:46:38.757Z,7.23
2019-05-22T21:49:08.370Z,7.67
2019-05-22T21:51:36.992Z,6.73
2019-05-22T21:54:08.048Z,6.83
2019-05-22T21:56:37.152Z,6.50
2019-05-22T21:59:06.775Z,5.70
2019-05-22T22:01:50.764Z,6.10
2019-05-22T22:04:32.002Z,5.43
2019-05-22T22:07:01.216Z,6.03
2019-05-22T22:09:30.092Z,5.90
2019-05-22T22:11:58.132Z,6.40
2019-05-22T22:14:26.328Z,6.17
2019-05-22T22:16:55.922Z,5.90
2019-05-22T22:19:24.971Z,6.20
2019-05-22T22:21:54.301Z,6.27
2019-05-22T22:24:22.752Z,6.43
2019-05-22T22:26:51.186Z,6.17
2019-05-22T22:29:19.439Z,6.40
2019-05-22T22:31:48.023Z,5.53
2019-05-22T22:34:27.897Z,5.43
2019-05-22T22:36:58.166Z,5.47
2019-05-22T22:39:26.862Z,6.23
2019-05-22T22:41:57.630Z,5.93
2019-05-22T22:44:25.749Z,5.73
2019-05-22T22:46:55.643Z,5.80
2019-05-22T22:49:27.414Z,5.67
2019-05-22T22:51:55.723Z,5.93
2019-05-22T22:54:24.302Z,5.33
2019-05-22T22:56:52.405Z,6.27
2019-05-22T22:59:20.810Z,6.27
2019-05-22T23:01:53.183Z,6.20
2019-05-22T23:04:23.504Z,6.87
2019-05-22T23:06:53.411Z,6.03
2019-05-22T23:09:22.996Z,6.07
2019-05-22T23:11:51.580Z,5.80
2019-05-22T23:14:22.412Z,6.27
2019-05-22T23:16:51.429Z,6.20
2019-05-22T23:19:35.293Z,5.70
2019-05-22T23:22:07.440Z,6.83
2019-05-22T23:24:37.417Z,6.20
2019-05-22T23:27:06.354Z,5.37
2019-05-22T23:29:35.695Z,6.07
2019-05-22T23:32:05.997Z,5.83
2019-05-22T23:34:34.755Z,5.77
2019-05-22T23:37:03.289Z,5.70
2019-05-22T23:39:34.368Z,6.57
2019-05-22T23:42:09.616Z,6.57
2019-05-22T23:44:39.322Z,6.07
2019-05-22T23:47:08.532Z,6.17
2019-05-22T23:49:37.614Z,5.87
2019-05-22T23:52:06.307Z,6.00
2019-05-22T23:54:35.478Z,5.93
2019-05-22T23:57:04.119Z,6.03
2019-05-22T23:59:35.725Z,6.27
